Time;durP1;ratioP1;P1;durP2;ratioP2;P2;SDS_P1;SDS_P2;PMS_P1;PMS_P2;Temp;Humidity;BMP_temperature;BMP_pressure;BME280_temperature;BME280_humidity;BME280_pressure;Samples;Min_cycle;Max_cycle;Signal;HPM_P1;HPM_P2
2021/06/17 00:00:58;;;;;;;;;;;;;;;23.41;52.44;99708.19;5133916;27;19912;-38
2021/06/17 00:03:24;;;;;;;;;;;;;;;23.35;52.56;99700.41;5133433;27;19912;-38
2021/06/17 00:05:49;;;;;;;;;;;;;;;23.52;52.57;99700.75;5139736;27;19911;-37
2021/06/17 00:08:14;;;;;;;;;;;;;;;23.57;52.02;99697.16;5154167;27;19911;-38
2021/06/17 00:10:41;;;;;;;;;;;;;;;22.91;53.84;99695.97;5154154;27;19961;-36
2021/06/17 00:13:10;;;;;;;;;;;;;;;22.89;53.62;99682.69;5154249;27;20375;-38
2021/06/17 00:15:36;;;;;;;;;;;;;;;22.62;54.26;99683.22;5153687;27;19923;-38
2021/06/17 00:18:01;;;;;;;;;;;;;;;22.51;54.66;99685.22;5153916;27;20306;-38
2021/06/17 00:20:27;;;;;;;;;;;;;;;22.38;55.28;99686.66;5154137;27;19982;-38
2021/06/17 00:22:52;;;;;;;;;;;;;;;22.11;56.20;99678.97;5135593;27;19916;-38
2021/06/17 00:25:17;;;;;;;;;;;;;;;22.20;55.80;99687.31;5154024;27;19915;-38
2021/06/17 00:27:43;;;;;;;;;;;;;;;22.42;55.22;99685.00;5153704;27;19912;-38
2021/06/17 00:30:08;;;;;;;;;;;;;;;22.16;55.91;99697.91;5153591;27;19918;-38
2021/06/17 00:32:34;;;;;;;;;;;;;;;22.41;55.29;99696.94;5153486;27;19918;-38
2021/06/17 00:34:59;;;;;;;;;;;;;;;22.25;55.74;99693.53;5135039;27;19911;-37
2021/06/17 00:37:24;;;;;;;;;;;;;;;22.72;54.64;99691.25;5153466;27;19918;-38
2021/06/17 00:39:50;;;;;;;;;;;;;;;21.95;56.64;99691.00;5153549;27;20267;-37
2021/06/17 00:42:15;;;;;;;;;;;;;;;22.08;55.87;99701.19;5153320;27;20051;-37
2021/06/17 00:44:40;;;;;;;;;;;;;;;22.08;55.92;99694.97;5153604;27;19937;-37
2021/06/17 00:47:06;;;;;;;;;;;;;;;22.11;55.96;99678.19;5153182;27;20368;-37
2021/06/17 00:49:31;;;;;;;;;;;;;;;22.30;55.13;99687.28;5153300;27;20019;-38
2021/06/17 00:51:56;;;;;;;;;;;;;;;22.33;54.66;99686.72;5153597;27;20255;-38
2021/06/17 00:54:34;;;;;;;;;;;;;;;22.22;54.87;99683.22;5134756;27;19910;-38
2021/06/17 00:57:03;;;;;;;;;;;;;;;21.88;55.85;99676.97;5153194;27;19918;-38
2021/06/17 00:59:28;;;;;;;;;;;;;;;21.76;56.64;99675.41;5152981;27;19922;-39
2021/06/17 01:01:54;;;;;;;;;;;;;;;22.36;54.76;99671.78;5153031;27;19911;-38
2021/06/17 01:04:19;;;;;;;;;;;;;;;21.71;55.99;99670.00;5153158;27;19911;-37
2021/06/17 01:06:44;;;;;;;;;;;;;;;21.43;56.66;99672.25;5153065;27;19957;-38
2021/06/17 01:09:15;;;;;;;;;;;;;;;21.35;57.04;99669.34;5152837;27;19911;-38
2021/06/17 01:11:46;;;;;;;;;;;;;;;21.50;56.72;99673.91;5152540;27;20306;-37
2021/06/17 01:14:11;;;;;;;;;;;;;;;21.58;56.27;99668.72;5152732;27;20294;-38
2021/06/17 01:16:37;;;;;;;;;;;;;;;21.63;56.23;99667.91;5152165;27;19919;-37
2021/06/17 01:19:08;;;;;;;;;;;;;;;21.93;55.44;99655.25;5133874;27;19921;-37
2021/06/17 01:21:36;;;;;;;;;;;;;;;22.00;55.22;99653.03;5126454;27;19911;-37
2021/06/17 01:24:13;;;;;;;;;;;;;;;21.65;56.10;99638.63;5142267;27;20362;-38
2021/06/17 01:26:51;;;;;;;;;;;;;;;21.82;55.25;99640.97;5152608;27;19915;-38
2021/06/17 01:29:18;;;;;;;;;;;;;;;22.06;54.96;99649.19;5152605;27;20394;-38
2021/06/17 01:31:43;;;;;;;;;;;;;;;22.31;53.90;99650.94;5134086;27;20362;-37
2021/06/17 01:34:08;;;;;;;;;;;;;;;22.32;53.76;99649.84;5152570;27;20029;-38
2021/06/17 01:36:34;;;;;;;;;;;;;;;22.35;53.84;99649.28;5133999;27;19911;-38
2021/06/17 01:39:00;;;;;;;;;;;;;;;22.18;54.52;99641.53;5133992;27;20354;-38
2021/06/17 01:41:27;;;;;;;;;;;;;;;22.46;53.53;99636.44;5133938;27;19918;-37
2021/06/17 01:43:52;;;;;;;;;;;;;;;22.29;53.84;99639.56;5152347;27;19911;-37
2021/06/17 01:46:17;;;;;;;;;;;;;;;22.51;53.27;99639.13;5152499;27;20205;-37
2021/06/17 01:48:43;;;;;;;;;;;;;;;22.62;52.80;99634.41;5152025;27;19911;-37
2021/06/17 01:51:08;;;;;;;;;;;;;;;22.82;52.59;99633.38;5133750;27;19918;-37
2021/06/17 01:53:34;;;;;;;;;;;;;;;22.96;51.71;99618.06;5152397;27;20470;-38
2021/06/17 01:55:59;;;;;;;;;;;;;;;23.00;51.84;99624.50;5133839;27;19921;-38
2021/06/17 01:58:24;;;;;;;;;;;;;;;22.71;52.42;99629.97;5135909;27;19915;-38
2021/06/17 02:00:50;;;;;;;;;;;;;;;22.42;53.07;99636.19;5137827;27;19990;-38
2021/06/17 02:03:15;;;;;;;;;;;;;;;22.42;53.33;99629.97;5137894;27;20009;-38
2021/06/17 02:05:40;;;;;;;;;;;;;;;22.58;52.82;99626.03;5156271;27;19923;-38
2021/06/17 02:08:07;;;;;;;;;;;;;;;22.80;52.34;99624.72;5137957;27;20009;-38
2021/06/17 02:10:32;;;;;;;;;;;;;;;23.01;51.59;99626.13;5156390;27;20381;-38
2021/06/17 02:12:58;;;;;;;;;;;;;;;23.15;50.87;99625.44;5138001;27;20005;-37
2021/06/17 02:15:26;;;;;;;;;;;;;;;23.18;51.30;99627.59;5137343;27;19923;-37
2021/06/17 02:17:51;;;;;;;;;;;;;;;23.19;50.70;99621.09;5155931;27;20017;-38
2021/06/17 02:20:17;;;;;;;;;;;;;;;23.03;51.01;99623.94;5137449;27;19922;-38
2021/06/17 02:22:42;;;;;;;;;;;;;;;22.72;51.85;99625.38;5119862;27;20402;-38
2021/06/17 02:25:08;;;;;;;;;;;;;;;23.03;51.24;99623.16;5136339;27;19922;-37
2021/06/17 02:27:33;;;;;;;;;;;;;;;23.11;51.21;99622.50;5137739;27;19961;-38
2021/06/17 02:30:00;;;;;;;;;;;;;;;22.89;51.45;99616.78;5137230;27;19922;-38
2021/06/17 02:32:25;;;;;;;;;;;;;;;22.98;51.64;99625.88;5156060;27;19911;-38
2021/06/17 02:34:51;;;;;;;;;;;;;;;22.71;52.79;99621.81;5155973;27;20410;-36
2021/06/17 02:37:17;;;;;;;;;;;;;;;22.70;52.74;99625.66;5156011;27;19918;-37
2021/06/17 02:39:42;;;;;;;;;;;;;;;22.54;52.53;99622.28;5137264;27;19983;-38
2021/06/17 02:42:08;;;;;;;;;;;;;;;22.60;52.54;99623.06;5137254;27;19917;-38
2021/06/17 02:44:33;;;;;;;;;;;;;;;22.52;52.92;99623.66;5155921;27;19911;-38
2021/06/17 02:46:58;;;;;;;;;;;;;;;22.16;53.79;99624.75;5136881;27;20013;-39
2021/06/17 02:49:24;;;;;;;;;;;;;;;22.47;53.20;99621.00;5155570;27;19911;-36
2021/06/17 02:51:49;;;;;;;;;;;;;;;22.35;53.52;99626.78;5155443;27;19911;-38
2021/06/17 02:54:20;;;;;;;;;;;;;;;22.63;53.04;99630.59;5155514;27;19918;-37
2021/06/17 02:56:58;;;;;;;;;;;;;;;22.65;52.81;99629.19;5155685;27;19985;-38
2021/06/17 02:59:32;;;;;;;;;;;;;;;22.61;52.98;99627.38;5136842;27;19916;-38
2021/06/17 03:02:01;;;;;;;;;;;;;;;22.63;52.88;99630.59;5155071;27;19911;-36
2021/06/17 03:04:32;;;;;;;;;;;;;;;22.65;52.78;99634.63;5136939;27;19919;-37
2021/06/17 03:06:58;;;;;;;;;;;;;;;22.83;52.43;99630.41;5155476;27;20243;-37
2021/06/17 03:09:25;;;;;;;;;;;;;;;22.89;51.88;99636.56;5136954;27;20438;-37
2021/06/17 03:11:52;;;;;;;;;;;;;;;22.99;51.60;99633.75;5136859;27;19915;-38
2021/06/17 03:14:22;;;;;;;;;;;;;;;23.14;51.59;99640.13;5155370;27;19911;-38
2021/06/17 03:16:48;;;;;;;;;;;;;;;23.13;51.36;99635.78;5136540;27;19919;-39
2021/06/17 03:19:13;;;;;;;;;;;;;;;22.76;52.76;99645.41;5136667;27;19915;-38
2021/06/17 03:21:39;;;;;;;;;;;;;;;22.61;53.40;99647.16;5147086;27;19919;-38
2021/06/17 03:24:05;;;;;;;;;;;;;;;22.59;53.36;99648.53;5123108;27;19912;-38
2021/06/17 03:26:30;;;;;;;;;;;;;;;22.58;53.73;99655.88;5132872;27;20268;-37
2021/06/17 03:28:56;;;;;;;;;;;;;;;22.77;53.06;99653.25;5132914;27;19919;-38
2021/06/17 03:31:21;;;;;;;;;;;;;;;22.98;52.85;99651.13;5134435;27;19990;-38
2021/06/17 03:33:47;;;;;;;;;;;;;;;23.26;52.13;99656.81;5132969;27;20014;-37
2021/06/17 03:36:12;;;;;;;;;;;;;;;23.39;51.78;99674.31;5134334;27;19916;-38
2021/06/17 03:38:38;;;;;;;;;;;;;;;23.66;51.35;99670.16;5132756;27;19920;-38
2021/06/17 03:41:03;;;;;;;;;;;;;;;24.08;50.47;99669.31;5132948;27;19917;-38
2021/06/17 03:43:29;;;;;;;;;;;;;;;24.36;49.87;99672.94;5132709;27;19911;-38
2021/06/17 03:45:54;;;;;;;;;;;;;;;24.75;48.85;99674.50;5129500;27;19999;-37
2021/06/17 03:48:19;;;;;;;;;;;;;;;25.07;48.21;99672.81;5132156;27;19922;-38
2021/06/17 03:50:45;;;;;;;;;;;;;;;25.20;48.03;99675.84;5133753;27;19939;-38
2021/06/17 03:53:13;;;;;;;;;;;;;;;25.30;47.79;99679.22;5133729;27;19918;-38
2021/06/17 03:55:40;;;;;;;;;;;;;;;25.87;46.54;99681.53;5124893;27;19979;-36
2021/06/17 03:58:05;;;;;;;;;;;;;;;26.22;45.45;99686.53;5115880;27;20281;-37
2021/06/17 04:00:31;;;;;;;;;;;;;;;26.31;45.02;99685.47;5133180;27;20343;-38
2021/06/17 04:02:56;;;;;;;;;;;;;;;26.14;44.97;99691.59;5133544;27;19911;-38
2021/06/17 04:05:21;;;;;;;;;;;;;;;26.23;45.13;99690.84;5117454;27;19911;-37
2021/06/17 04:07:46;;;;;;;;;;;;;;;26.77;44.42;99693.63;5154229;27;19918;-38
2021/06/17 04:10:13;;;;;;;;;;;;;;;27.17;43.81;99702.66;5135290;27;20259;-38
2021/06/17 04:12:38;;;;;;;;;;;;;;;27.52;42.73;99696.53;5135450;27;19919;-38
2021/06/17 04:15:04;;;;;;;;;;;;;;;27.53;42.62;99698.97;5154132;27;19927;-38
2021/06/17 04:17:31;;;;;;;;;;;;;;;27.09;43.55;99701.53;5135267;27;20304;-38
2021/06/17 04:19:58;;;;;;;;;;;;;;;26.61;44.54;99704.16;5152954;27;20323;-37
2021/06/17 04:22:24;;;;;;;;;;;;;;;26.02;45.65;99701.44;5119979;27;20338;-37
2021/06/17 04:24:56;;;;;;;;;;;;;;;25.59;46.51;99697.16;5114202;27;20007;-37
2021/06/17 04:27:21;;;;;;;;;;;;;;;25.59;46.71;99705.31;5132766;27;19929;-38
2021/06/17 04:29:48;;;;;;;;;;;;;;;25.42;47.55;99716.84;5133104;27;19994;-38
2021/06/17 04:32:13;;;;;;;;;;;;;;;25.58;47.48;99720.03;5131937;27;19911;-38
2021/06/17 04:34:39;;;;;;;;;;;;;;;25.81;47.69;99717.41;5113288;27;20022;-38
2021/06/17 04:37:05;;;;;;;;;;;;;;;26.02;46.69;99721.31;5132085;27;19917;-39
2021/06/17 04:39:30;;;;;;;;;;;;;;;26.18;46.10;99729.97;5113195;27;19983;-38
2021/06/17 04:41:56;;;;;;;;;;;;;;;26.25;46.19;99734.97;5113512;27;19998;-37
2021/06/17 04:44:21;;;;;;;;;;;;;;;26.06;46.56;99735.13;5113142;27;19935;-39
2021/06/17 04:46:47;;;;;;;;;;;;;;;25.77;47.92;99740.94;5131426;27;19911;-38
2021/06/17 04:49:13;;;;;;;;;;;;;;;25.80;47.08;99756.66;5131221;27;19917;-39
2021/06/17 04:51:38;;;;;;;;;;;;;;;25.27;48.41;99753.34;5113182;27;19915;-39
2021/06/17 04:54:07;;;;;;;;;;;;;;;25.43;48.29;99761.22;5131362;27;19912;-39
2021/06/17 04:56:33;;;;;;;;;;;;;;;25.57;47.45;99767.50;5150037;27;19934;-38
2021/06/17 04:58:58;;;;;;;;;;;;;;;25.63;47.96;99760.03;5151963;27;20349;-39
2021/06/17 05:01:23;;;;;;;;;;;;;;;25.45;48.49;99769.88;5151984;27;20003;-38
2021/06/17 05:03:50;;;;;;;;;;;;;;;25.50;48.00;99762.44;5151656;27;20298;-37
2021/06/17 05:06:18;;;;;;;;;;;;;;;25.35;48.82;99763.53;5118886;27;19916;-38
2021/06/17 05:11:27;;;;;;;;;;;;;;;26.13;47.28;99763.59;5111972;27;19927;-38
2021/06/17 05:13:52;;;;;;;;;;;;;;;26.17;46.71;99760.25;5111156;28;19911;-38
2021/06/17 05:16:18;;;;;;;;;;;;;;;26.29;46.50;99763.25;5111044;28;20010;-38
2021/06/17 05:18:43;;;;;;;;;;;;;;;26.42;46.33;99764.31;5111131;28;19984;-40
2021/06/17 05:21:08;;;;;;;;;;;;;;;26.44;46.53;99771.06;5114519;27;19911;-38
2021/06/17 05:23:35;;;;;;;;;;;;;;;26.54;46.52;99767.31;5131113;27;19911;-39
2021/06/17 05:26:00;;;;;;;;;;;;;;;26.47;46.57;99762.28;5112679;27;19958;-38
2021/06/17 05:28:25;;;;;;;;;;;;;;;26.72;46.04;99757.34;5131075;27;19947;-38
2021/06/17 05:30:54;;;;;;;;;;;;;;;26.62;46.16;99763.88;5131467;27;19919;-37
2021/06/17 05:33:20;;;;;;;;;;;;;;;26.56;46.32;99753.34;5130258;27;19963;-38
2021/06/17 05:35:46;;;;;;;;;;;;;;;26.80;45.85;99753.06;5130958;27;20379;-38
2021/06/17 05:38:12;;;;;;;;;;;;;;;26.62;46.19;99749.44;5131603;27;19923;-39
2021/06/17 05:40:37;;;;;;;;;;;;;;;26.86;45.77;99758.06;5131620;27;19911;-39
2021/06/17 05:43:03;;;;;;;;;;;;;;;26.38;46.95;99764.13;5131797;27;19912;-38
2021/06/17 05:45:28;;;;;;;;;;;;;;;26.62;46.19;99758.41;5129809;27;19915;-38
2021/06/17 05:47:53;;;;;;;;;;;;;;;26.74;46.01;99760.56;5131046;28;19912;-38
2021/06/17 05:50:18;;;;;;;;;;;;;;;26.76;46.23;99765.72;5130763;27;20401;-38
2021/06/17 05:52:45;;;;;;;;;;;;;;;27.02;45.83;99766.69;5130250;28;19919;-38
2021/06/17 05:55:10;;;;;;;;;;;;;;;26.99;45.98;99761.03;5137708;27;19911;-38
2021/06/17 05:57:36;;;;;;;;;;;;;;;27.37;45.38;99766.09;5150886;27;19983;-39
2021/06/17 06:00:02;;;;;;;;;;;;;;;27.74;44.42;99758.47;5132193;27;20002;-38
2021/06/17 06:02:28;;;;;;;;;;;;;;;28.27;42.76;99757.44;5150896;27;19911;-39
2021/06/17 06:04:53;;;;;;;;;;;;;;;28.25;42.82;99762.44;5151651;27;20244;-38
2021/06/17 06:07:18;;;;;;;;;;;;;;;28.53;42.38;99767.63;5151821;27;20013;-38
2021/06/17 06:09:44;;;;;;;;;;;;;;;29.18;41.46;99772.03;5152742;27;19918;-38
2021/06/17 06:12:10;;;;;;;;;;;;;;;29.70;40.58;99768.25;5133714;27;19960;-38
2021/06/17 06:14:35;;;;;;;;;;;;;;;29.97;39.89;99768.94;5151737;27;19967;-38
2021/06/17 06:17:01;;;;;;;;;;;;;;;30.84;38.18;99765.47;5152029;27;19911;-39
2021/06/17 06:19:26;;;;;;;;;;;;;;;30.96;37.32;99772.97;5151595;27;19915;-38
2021/06/17 06:21:52;;;;;;;;;;;;;;;30.89;38.10;99776.25;5141447;27;20006;-38
2021/06/17 06:24:17;;;;;;;;;;;;;;;30.98;37.24;99767.94;5131365;28;19912;-39
2021/06/17 06:26:44;;;;;;;;;;;;;;;31.53;36.34;99768.63;5130956;28;20056;-39
2021/06/17 06:29:10;;;;;;;;;;;;;;;31.59;36.10;99761.72;5131060;28;19911;-37
2021/06/17 06:31:35;;;;;;;;;;;;;;;31.79;35.36;99764.69;5131330;28;19911;-39
2021/06/17 06:34:00;;;;;;;;;;;;;;;31.76;34.76;99760.69;5130900;28;19923;-39
2021/06/17 06:36:27;;;;;;;;;;;;;;;32.04;34.37;99765.47;5130781;28;19911;-39
2021/06/17 06:38:52;;;;;;;;;;;;;;;31.90;34.14;99768.56;5130560;28;19983;-38
2021/06/17 06:41:17;;;;;;;;;;;;;;;32.83;33.00;99767.72;5112340;28;19919;-39
2021/06/17 06:43:42;;;;;;;;;;;;;;;33.17;32.59;99765.47;5132374;27;19919;-39
2021/06/17 06:46:08;;;;;;;;;;;;;;;32.96;32.00;99768.44;5135239;27;19942;-39
2021/06/17 06:48:33;;;;;;;;;;;;;;;32.60;32.67;99765.53;5115841;27;20366;-39
2021/06/17 06:50:58;;;;;;;;;;;;;;;32.42;32.52;99772.47;5134402;27;20297;-38
2021/06/17 06:53:24;;;;;;;;;;;;;;;32.26;31.76;99764.97;5134555;27;19918;-39
2021/06/17 06:55:49;;;;;;;;;;;;;;;33.38;31.18;99773.50;5147236;27;20314;-40
2021/06/17 06:58:14;;;;;;;;;;;;;;;33.04;31.28;99773.00;5155070;27;19915;-39
2021/06/17 07:00:43;;;;;;;;;;;;;;;33.60;30.40;99772.03;5155358;27;20001;-39
2021/06/17 07:03:08;;;;;;;;;;;;;;;33.42;29.89;99771.63;5155220;27;19911;-39
2021/06/17 07:05:33;;;;;;;;;;;;;;;33.85;28.78;99773.44;5154599;27;19911;-37
2021/06/17 07:08:02;;;;;;;;;;;;;;;34.44;28.55;99768.81;5154929;27;19934;-38
2021/06/17 07:10:27;;;;;;;;;;;;;;;33.08;29.26;99773.91;5154516;27;19984;-38
2021/06/17 07:12:53;;;;;;;;;;;;;;;33.53;29.90;99775.44;5154560;27;19994;-38
2021/06/17 07:15:18;;;;;;;;;;;;;;;32.95;30.18;99769.63;5154865;27;19979;-38
2021/06/17 07:17:43;;;;;;;;;;;;;;;33.71;29.26;99769.56;5155436;27;19978;-39
2021/06/17 07:20:09;;;;;;;;;;;;;;;33.80;28.74;99770.16;5154954;27;19934;-38
2021/06/17 07:22:34;;;;;;;;;;;;;;;34.30;27.97;99779.56;5138438;27;20386;-39
2021/06/17 07:24:59;;;;;;;;;;;;;;;34.76;28.09;99768.63;5133986;27;19922;-39
2021/06/17 07:27:25;;;;;;;;;;;;;;;35.17;27.36;99763.47;5134733;27;19998;-39
2021/06/17 07:29:53;;;;;;;;;;;;;;;35.74;26.77;99763.59;5134598;27;20367;-39
2021/06/17 07:32:18;;;;;;;;;;;;;;;35.95;25.84;99765.06;5134190;27;19918;-38
2021/06/17 07:34:45;;;;;;;;;;;;;;;36.35;25.60;99763.63;5134075;27;19912;-39
2021/06/17 07:37:11;;;;;;;;;;;;;;;36.16;25.55;99762.56;5134128;27;19912;-38
2021/06/17 07:39:36;;;;;;;;;;;;;;;36.29;25.98;99767.88;5134374;27;19923;-39
2021/06/17 07:42:01;;;;;;;;;;;;;;;36.33;25.44;99763.22;5134126;27;19922;-41
2021/06/17 07:44:27;;;;;;;;;;;;;;;36.46;24.93;99774.81;5133966;27;20320;-39
2021/06/17 07:46:52;;;;;;;;;;;;;;;36.64;24.90;99775.03;5134095;27;19918;-39
2021/06/17 07:49:17;;;;;;;;;;;;;;;36.68;25.15;99765.59;5148729;27;19918;-38
2021/06/17 07:51:43;;;;;;;;;;;;;;;36.08;25.46;99769.19;5154811;27;19922;-39
2021/06/17 07:54:08;;;;;;;;;;;;;;;36.58;25.02;99771.81;5154809;27;19919;-39
2021/06/17 07:56:33;;;;;;;;;;;;;;;36.32;24.97;99770.69;5153970;27;21229;-39
2021/06/17 07:58:59;;;;;;;;;;;;;;;36.06;25.29;99770.75;5154380;27;19926;-38
2021/06/17 08:01:25;;;;;;;;;;;;;;;36.56;24.83;99768.63;5154368;27;19911;-38
2021/06/17 08:03:50;;;;;;;;;;;;;;;35.99;25.62;99772.25;5145504;27;19975;-40
2021/06/17 08:06:16;;;;;;;;;;;;;;;35.40;26.83;99771.75;5133402;27;20009;-39
2021/06/17 08:08:42;;;;;;;;;;;;;;;35.04;26.93;99773.09;5133591;27;20347;-39
2021/06/17 08:11:07;;;;;;;;;;;;;;;35.56;26.15;99770.78;5133755;27;20004;-39
2021/06/17 08:13:33;;;;;;;;;;;;;;;36.90;24.63;99763.03;5133517;27;20025;-39
2021/06/17 08:15:58;;;;;;;;;;;;;;;36.66;24.76;99753.31;5133334;27;19933;-39
2021/06/17 08:18:23;;;;;;;;;;;;;;;36.50;25.73;99751.53;5133082;27;19915;-39
2021/06/17 08:20:49;;;;;;;;;;;;;;;36.55;25.27;99751.16;5132861;27;20240;-38
2021/06/17 08:23:18;;;;;;;;;;;;;;;35.49;26.70;99749.38;5133108;27;19920;-39
2021/06/17 08:25:44;;;;;;;;;;;;;;;35.60;27.17;99753.09;5133021;27;20245;-39
2021/06/17 08:28:09;;;;;;;;;;;;;;;35.40;26.01;99751.59;5132677;27;20335;-39
2021/06/17 08:30:35;;;;;;;;;;;;;;;36.58;25.13;99746.88;5132958;27;19918;-39
2021/06/17 08:33:00;;;;;;;;;;;;;;;36.79;25.75;99749.09;5133319;27;20266;-39
2021/06/17 08:35:25;;;;;;;;;;;;;;;36.40;24.46;99724.50;5139568;27;20350;-39
2021/06/17 08:37:51;;;;;;;;;;;;;;;37.51;23.41;99741.38;5152879;27;19912;-39
2021/06/17 08:40:16;;;;;;;;;;;;;;;37.78;22.54;99741.19;5153144;27;19948;-41
2021/06/17 08:42:42;;;;;;;;;;;;;;;38.03;22.26;99746.84;5153572;27;19911;-39
2021/06/17 08:45:09;;;;;;;;;;;;;;;37.98;22.57;99747.22;5134644;27;19919;-40
2021/06/17 08:47:36;;;;;;;;;;;;;;;38.34;21.45;99743.41;5153194;27;19911;-40
2021/06/17 08:50:03;;;;;;;;;;;;;;;38.89;21.13;99731.22;5153304;27;19964;-39
2021/06/17 08:52:31;;;;;;;;;;;;;;;38.17;22.09;99737.81;5153665;27;19912;-40
2021/06/17 08:55:08;;;;;;;;;;;;;;;37.74;23.05;99741.94;5147767;27;19930;-40
2021/06/17 08:57:33;;;;;;;;;;;;;;;37.40;23.61;99732.19;5132209;27;19911;-38
2021/06/17 09:09:09;;;;;;;;;;;;;;;38.54;21.25;99734.78;5132700;27;19933;-41
2021/06/17 09:11:34;;;;;;;;;;;;;;;38.38;21.33;99723.97;5132032;27;19911;-40
2021/06/17 09:14:12;;;;;;;;;;;;;;;38.63;21.09;99712.97;5131948;27;20336;-40
2021/06/17 09:16:38;;;;;;;;;;;;;;;38.45;21.92;99707.31;5131917;27;19945;-40
2021/06/17 09:19:03;;;;;;;;;;;;;;;38.33;21.43;99710.47;5131735;27;20033;-38
2021/06/17 09:21:28;;;;;;;;;;;;;;;39.14;20.90;99713.78;5132310;27;19962;-39
2021/06/17 09:23:53;;;;;;;;;;;;;;;38.92;21.48;99710.19;5131932;27;19960;-39
2021/06/17 09:26:20;;;;;;;;;;;;;;;39.49;20.00;99698.28;5131966;27;19988;-38
2021/06/17 09:28:45;;;;;;;;;;;;;;;39.06;20.81;99698.28;5131938;27;19935;-40
2021/06/17 09:31:14;;;;;;;;;;;;;;;39.58;21.10;99687.47;5132190;27;19911;-39
2021/06/17 09:33:40;;;;;;;;;;;;;;;40.07;19.74;99687.72;5131834;27;19915;-39
2021/06/17 09:36:05;;;;;;;;;;;;;;;38.96;20.72;99694.31;5131685;27;19943;-39
2021/06/17 09:38:31;;;;;;;;;;;;;;;39.68;19.90;99686.69;5113403;27;20294;-40
2021/06/17 09:40:56;;;;;;;;;;;;;;;37.78;20.58;99688.44;5113095;28;19917;-41
2021/06/17 09:43:22;;;;;;;;;;;;;;;38.06;20.77;99684.94;5131640;27;19911;-40
2021/06/17 09:45:56;;;;;;;;;;;;;;;39.27;20.43;99680.78;5131845;27;20319;-38
2021/06/17 09:48:34;;;;;;;;;;;;;;;39.76;19.58;99678.31;5131905;27;20318;-38
2021/06/17 09:51:01;;;;;;;;;;;;;;;37.56;21.46;99679.94;5131773;27;19934;-38
2021/06/17 09:53:27;;;;;;;;;;;;;;;37.44;21.47;99675.53;5113094;28;20137;-40
2021/06/17 09:55:52;;;;;;;;;;;;;;;37.59;20.34;99670.06;5145004;27;20318;-39
2021/06/17 09:58:36;;;;;;;;;;;;;;;37.36;20.90;99671.91;5151728;27;20026;-40
2021/06/17 10:01:02;;;;;;;;;;;;;;;38.53;20.39;99677.56;5152030;27;19911;-39
2021/06/17 10:03:27;;;;;;;;;;;;;;;38.96;19.71;99674.06;5152266;27;20318;-39
2021/06/17 10:05:52;;;;;;;;;;;;;;;39.55;19.36;99668.81;5134251;27;20342;-40
2021/06/17 10:08:18;;;;;;;;;;;;;;;40.40;18.95;99666.88;5133516;27;20377;-39
2021/06/17 10:10:43;;;;;;;;;;;;;;;41.21;18.12;99666.63;5152352;27;19911;-39
2021/06/17 10:13:09;;;;;;;;;;;;;;;38.93;18.62;99658.94;5133269;27;19984;-39
2021/06/17 10:15:34;;;;;;;;;;;;;;;37.98;20.23;99659.16;5151815;27;19929;-38
2021/06/17 10:18:00;;;;;;;;;;;;;;;38.79;19.95;99650.63;5151588;27;19991;-40
2021/06/17 10:20:25;;;;;;;;;;;;;;;37.52;20.44;99656.94;5156477;27;19914;-39
2021/06/17 10:22:51;;;;;;;;;;;;;;;36.74;21.37;99642.13;5137639;27;20006;-40
2021/06/17 10:25:20;;;;;;;;;;;;;;;36.76;21.50;99639.75;5135747;27;19911;-38
2021/06/17 10:27:45;;;;;;;;;;;;;;;37.32;21.06;99648.91;5135759;27;19976;-39
2021/06/17 10:30:11;;;;;;;;;;;;;;;36.94;21.85;99642.69;5135493;27;20339;-40
2021/06/17 10:32:43;;;;;;;;;;;;;;;38.11;20.76;99640.19;5134421;27;19911;-40
2021/06/17 10:35:08;;;;;;;;;;;;;;;38.77;20.36;99636.31;5135349;27;19934;-38
2021/06/17 10:37:34;;;;;;;;;;;;;;;39.59;19.32;99638.19;5135116;27;20375;-40
2021/06/17 10:40:04;;;;;;;;;;;;;;;39.02;18.13;99622.41;5134851;27;20274;-40
2021/06/17 10:42:29;;;;;;;;;;;;;;;38.06;19.97;99626.63;5135237;27;19949;-38
2021/06/17 10:45:06;;;;;;;;;;;;;;;39.01;19.53;99621.59;5135274;27;19911;-41
2021/06/17 10:47:41;;;;;;;;;;;;;;;39.17;18.46;99618.41;5135175;27;20023;-39
2021/06/17 10:50:13;;;;;;;;;;;;;;;40.05;18.61;99612.13;5135168;27;20069;-40
2021/06/17 10:52:40;;;;;;;;;;;;;;;40.69;17.34;99608.09;5135354;27;20260;-42
2021/06/17 10:55:05;;;;;;;;;;;;;;;40.03;17.76;99606.97;5134917;27;19912;-39
2021/06/17 10:57:50;;;;;;;;;;;;;;;40.14;18.94;99595.75;5135003;27;19911;-38
2021/06/17 11:00:21;;;;;;;;;;;;;;;39.40;18.88;99590.13;5135037;27;19911;-40
2021/06/17 11:02:47;;;;;;;;;;;;;;;39.06;19.16;99582.25;5135190;27;19960;-40
2021/06/17 11:05:40;;;;;;;;;;;;;;;39.33;19.72;99581.00;5116653;27;19942;-38
2021/06/17 11:08:22;;;;;;;;;;;;;;;40.11;18.92;99585.41;5086310;27;19952;-41
2021/06/17 11:10:48;;;;;;;;;;;;;;;40.55;18.82;99589.47;5134670;27;19994;-38
2021/06/17 11:13:26;;;;;;;;;;;;;;;39.10;18.25;99585.81;5134529;27;19911;-40
2021/06/17 11:15:52;;;;;;;;;;;;;;;39.09;19.00;99583.47;5134428;27;20009;-39
2021/06/17 11:18:37;;;;;;;;;;;;;;;38.98;19.69;99582.66;5134348;27;20014;-38
2021/06/17 11:21:02;;;;;;;;;;;;;;;39.12;19.16;99579.09;5130819;27;19968;-41
2021/06/17 11:23:28;;;;;;;;;;;;;;;38.77;19.35;99581.50;5113791;28;20054;-38
2021/06/17 11:25:56;;;;;;;;;;;;;;;38.83;18.75;99579.13;5113744;28;19911;-40
2021/06/17 11:28:22;;;;;;;;;;;;;;;38.02;19.39;99584.97;5113532;28;19918;-39
2021/06/17 11:30:53;;;;;;;;;;;;;;;38.69;19.08;99563.22;5093741;28;19912;-41
2021/06/17 11:33:24;;;;;;;;;;;;;;;38.83;18.71;99579.91;5113645;28;19941;-40
2021/06/17 11:35:51;;;;;;;;;;;;;;;38.50;19.46;99584.66;5113799;28;19934;-39
2021/06/17 11:38:22;;;;;;;;;;;;;;;38.44;19.63;99579.88;5113437;28;19920;-40
2021/06/17 11:40:48;;;;;;;;;;;;;;;38.52;19.73;99587.06;5113170;28;19962;-39
2021/06/17 11:43:13;;;;;;;;;;;;;;;39.22;18.60;99578.25;5113458;28;19915;-39
2021/06/17 11:45:38;;;;;;;;;;;;;;;39.73;19.15;99576.88;5113585;28;19912;-39
2021/06/17 11:48:07;;;;;;;;;;;;;;;39.98;18.21;99570.38;5113489;28;19912;-40
2021/06/17 11:50:32;;;;;;;;;;;;;;;39.58;18.14;99570.56;5113127;28;19912;-38
2021/06/17 11:52:58;;;;;;;;;;;;;;;40.02;18.19;99562.78;5113033;28;19965;-39
2021/06/17 11:55:25;;;;;;;;;;;;;;;39.86;17.83;99560.50;5131537;27;19998;-40
2021/06/17 11:57:50;;;;;;;;;;;;;;;39.91;18.42;99564.84;5153792;27;19923;-39
2021/06/17 12:00:31;;;;;;;;;;;;;;;40.06;18.16;99558.81;5154492;27;19911;-39
2021/06/17 12:02:56;;;;;;;;;;;;;;;40.12;18.59;99558.34;5136277;27;19914;-37
2021/06/17 12:05:22;;;;;;;;;;;;;;;40.06;18.31;99552.41;5154168;27;19987;-39
2021/06/17 12:07:48;;;;;;;;;;;;;;;40.32;18.67;99541.88;5151958;27;19942;-39
2021/06/17 12:10:17;;;;;;;;;;;;;;;39.99;18.09;99552.50;5154064;27;19981;-41
2021/06/17 12:12:52;;;;;;;;;;;;;;;38.58;20.74;99534.69;5154551;27;20355;-38
2021/06/17 12:15:21;;;;;;;;;;;;;;;38.89;20.15;99536.59;5153577;27;19931;-38
2021/06/17 12:17:53;;;;;;;;;;;;;;;37.42;21.03;99541.16;5153996;27;19911;-38
2021/06/17 12:20:22;;;;;;;;;;;;;;;36.30;21.50;99537.63;5154071;27;19958;-38
2021/06/17 12:22:58;;;;;;;;;;;;;;;35.31;23.00;99521.50;5135690;27;20366;-39
2021/06/17 12:25:24;;;;;;;;;;;;;;;35.22;23.25;99521.78;5133302;27;19912;-38
2021/06/17 12:27:49;;;;;;;;;;;;;;;35.77;21.99;99530.38;5133189;27;19915;-40
2021/06/17 12:30:21;;;;;;;;;;;;;;;36.07;22.49;99528.69;5132994;27;20359;-40
2021/06/17 12:32:46;;;;;;;;;;;;;;;35.85;22.24;99522.94;5135391;27;19914;-39
2021/06/17 12:35:12;;;;;;;;;;;;;;;36.07;21.94;99520.38;5144142;27;20302;-38
2021/06/17 12:37:50;;;;;;;;;;;;;;;36.66;21.21;99523.28;5138473;27;19918;-40
2021/06/17 12:40:32;;;;;;;;;;;;;;;36.84;20.50;99524.19;5143861;27;20363;-39
2021/06/17 12:43:04;;;;;;;;;;;;;;;37.30;20.17;99520.91;5140541;27;19919;-38
2021/06/17 12:45:29;;;;;;;;;;;;;;;37.82;20.10;99522.69;5138167;27;19915;-38
2021/06/17 12:47:55;;;;;;;;;;;;;;;38.22;20.36;99527.09;5143664;27;20029;-40
2021/06/17 12:53:23;;;;;;;;;;;;;;;37.88;20.09;99549.63;5063026;28;19912;-39
2021/06/17 12:55:55;;;;;;;;;;;;;;;37.15;21.24;99549.75;5102725;28;19999;-39
2021/06/17 12:58:23;;;;;;;;;;;;;;;36.90;21.47;99544.84;5101250;27;19919;-39
2021/06/17 13:00:55;;;;;;;;;;;;;;;36.73;21.93;99549.09;5135233;27;19987;-39